createdAt,value
2023-09-18T00:02:14.947Z,6.60
2023-09-18T00:04:45.782Z,6.78
2023-09-18T00:07:17.208Z,5.88
2023-09-18T00:09:47.838Z,7.03
2023-09-18T00:12:18.452Z,7.97
2023-09-18T00:14:52.458Z,6.68
2023-09-18T00:17:26.391Z,5.90
2023-09-18T00:19:57.156Z,5.25
2023-09-18T00:22:28.437Z,5.78
2023-09-18T00:24:59.889Z,6.28
2023-09-18T00:27:31.103Z,5.32
2023-09-18T00:30:02.381Z,5.63
2023-09-18T00:32:34.127Z,5.78
2023-09-18T00:35:05.497Z,5.70
2023-09-18T00:37:36.323Z,5.45
2023-09-18T00:40:07.893Z,4.60
2023-09-18T00:42:38.742Z,5.93
2023-09-18T00:47:41.327Z,5.20
2023-09-18T00:50:15.226Z,5.90
2023-09-18T00:52:46.802Z,5.35
2023-09-18T00:55:18.722Z,5.05
2023-09-18T00:57:50.052Z,5.85
2023-09-18T01:00:21.536Z,6.10
2023-09-18T01:02:53.586Z,5.85
2023-09-18T01:05:24.420Z,4.93
2023-09-18T01:07:55.196Z,5.50
2023-09-18T01:10:31.079Z,5.15
2023-09-18T01:13:18.189Z,5.57
2023-09-18T01:16:06.541Z,4.85
2023-09-18T01:18:37.981Z,5.60
2023-09-18T01:21:08.959Z,5.38
2023-09-18T01:23:39.510Z,6.22
2023-09-18T01:26:10.683Z,5.20
2023-09-18T01:28:41.048Z,5.68
2023-09-18T01:31:11.585Z,6.78
2023-09-18T01:33:43.481Z,7.90
2023-09-18T01:36:16.275Z,8.68
2023-09-18T01:38:47.716Z,7.60
2023-09-18T01:41:18.129Z,8.13
2023-09-18T01:43:48.313Z,7.28
2023-09-18T01:46:18.808Z,7.78
2023-09-18T01:48:50.458Z,7.57
2023-09-18T01:51:21.998Z,7.70
2023-09-18T01:53:52.200Z,7.47
2023-09-18T01:56:22.488Z,5.47
2023-09-18T01:58:53.167Z,5.15
2023-09-18T02:01:25.213Z,5.63
2023-09-18T02:04:23.361Z,5.25
2023-09-18T02:06:46.819Z,5.00
2023-09-18T02:09:17.062Z,6.13
2023-09-18T02:11:50.381Z,4.60
2023-09-18T02:14:20.735Z,5.25
2023-09-18T02:16:51.622Z,5.28
2023-09-18T02:19:22.572Z,5.60
2023-09-18T02:21:52.777Z,6.13
2023-09-18T02:24:22.996Z,4.80
2023-09-18T02:26:54.141Z,5.47
2023-09-18T02:29:25.318Z,5.40
2023-09-18T02:31:55.622Z,5.65
2023-09-18T02:34:25.839Z,6.38
2023-09-18T02:36:56.256Z,5.93
2023-09-18T02:39:26.458Z,5.75
2023-09-18T02:44:27.286Z,4.72
2023-09-18T02:46:57.617Z,6.30
2023-09-18T02:49:27.813Z,5.90
2023-09-18T02:51:58.159Z,6.38
2023-09-18T02:54:29.112Z,5.72
2023-09-18T02:56:59.386Z,7.13
2023-09-18T02:59:29.664Z,5.38
2023-09-18T03:02:00.159Z,5.10
2023-09-18T03:04:32.834Z,6.10
2023-09-18T03:07:03.927Z,6.03
2023-09-18T03:09:34.189Z,5.07
2023-09-18T03:12:04.831Z,5.97
2023-09-18T03:14:35.087Z,5.70
2023-09-18T03:17:05.619Z,5.60
2023-09-18T03:19:35.621Z,5.97
2023-09-18T03:22:06.069Z,6.70
2023-09-18T03:24:36.725Z,6.15
2023-09-18T03:27:06.869Z,6.25
2023-09-18T03:29:37.354Z,6.55
2023-09-18T03:32:07.866Z,5.43
2023-09-18T03:34:39.323Z,5.22
2023-09-18T03:37:10.689Z,5.25
2023-09-18T03:39:40.924Z,5.90
2023-09-18T03:42:11.118Z,5.85
2023-09-18T03:44:41.410Z,5.22
2023-09-18T03:47:11.732Z,5.13
2023-09-18T03:49:41.884Z,5.18
2023-09-18T03:52:12.411Z,5.95
2023-09-18T03:54:42.647Z,4.85
2023-09-18T03:57:12.911Z,6.03
2023-09-18T03:59:45.617Z,5.47
2023-09-18T04:02:15.996Z,5.50
2023-09-18T04:04:46.331Z,7.05
2023-09-18T04:07:18.798Z,5.93
2023-09-18T04:09:49.279Z,5.50
2023-09-18T04:12:19.957Z,5.88
2023-09-18T04:14:50.137Z,5.90
2023-09-18T04:17:20.583Z,6.07
2023-09-18T04:19:50.809Z,5.90
2023-09-18T04:22:21.013Z,6.00
2023-09-18T04:24:51.308Z,5.63
2023-09-18T04:27:21.540Z,5.28
2023-09-18T04:29:51.815Z,5.53
2023-09-18T04:32:22.155Z,4.97
2023-09-18T04:34:52.383Z,5.05
2023-09-18T04:37:22.898Z,5.82
2023-09-18T04:39:53.115Z,5.72
2023-09-18T04:42:23.269Z,5.25
2023-09-18T04:44:53.460Z,5.47
2023-09-18T04:47:23.720Z,5.55
2023-09-18T04:49:53.984Z,5.07
2023-09-18T04:52:24.705Z,5.78
2023-09-18T04:54:56.456Z,5.05
2023-09-18T04:57:26.683Z,6.55
2023-09-18T05:00:14.351Z,5.60
2023-09-18T05:02:47.264Z,5.60
2023-09-18T05:05:17.673Z,5.10
2023-09-18T05:07:48.049Z,5.28
2023-09-18T05:10:18.833Z,5.43
2023-09-18T05:12:49.137Z,6.38
2023-09-18T05:15:19.411Z,4.88
2023-09-18T05:17:54.350Z,5.10
2023-09-18T05:20:26.372Z,6.45
2023-09-18T05:22:57.557Z,6.20
2023-09-18T05:28:01.959Z,5.70
2023-09-18T05:30:36.435Z,4.88
2023-09-18T05:33:07.551Z,5.00
2023-09-18T05:38:09.166Z,5.25
2023-09-18T05:40:39.568Z,5.57
2023-09-18T05:43:10.521Z,6.45
2023-09-18T05:45:41.323Z,5.90
2023-09-18T05:48:11.901Z,5.53
2023-09-18T05:50:44.086Z,5.65
2023-09-18T05:53:14.758Z,5.20
2023-09-18T05:55:45.021Z,6.15
2023-09-18T05:58:16.246Z,5.72
2023-09-18T06:03:17.350Z,5.65
2023-09-18T06:05:47.698Z,5.63
2023-09-18T06:08:18.051Z,5.82
2023-09-18T06:10:48.351Z,5.20
2023-09-18T06:13:18.549Z,5.05
2023-09-18T06:15:48.759Z,4.60
2023-09-18T06:18:19.016Z,4.82
2023-09-18T06:20:52.976Z,4.43
2023-09-18T06:23:23.187Z,4.90
2023-09-18T06:25:58.385Z,6.13
2023-09-18T06:28:28.581Z,4.97
2023-09-18T06:30:58.938Z,4.93
2023-09-18T06:33:29.366Z,4.97
2023-09-18T06:35:59.584Z,5.28
2023-09-18T06:38:29.773Z,5.65
2023-09-18T06:41:00.071Z,6.05
2023-09-18T06:43:30.320Z,5.18
2023-09-18T06:46:00.573Z,4.97
2023-09-18T06:48:34.567Z,5.30
2023-09-18T06:51:04.848Z,5.07
2023-09-18T06:53:35.657Z,5.20
2023-09-18T06:56:07.264Z,4.60
2023-09-18T06:58:37.797Z,4.82
2023-09-18T07:01:11.949Z,5.25
2023-09-18T07:03:43.109Z,4.35
2023-09-18T07:06:13.753Z,4.90
2023-09-18T07:08:45.082Z,5.43
2023-09-18T07:11:15.498Z,4.88
2023-09-18T07:13:46.240Z,5.18
2023-09-18T07:16:16.754Z,5.05
2023-09-18T07:18:47.095Z,4.97
2023-09-18T07:21:18.541Z,5.60
2023-09-18T07:26:21.212Z,4.55
2023-09-18T07:28:51.941Z,4.72
2023-09-18T07:31:22.538Z,5.22
2023-09-18T07:33:55.735Z,4.25
2023-09-18T07:36:27.158Z,4.05
2023-09-18T07:39:01.090Z,4.80
2023-09-18T07:41:31.502Z,4.45
2023-09-18T07:44:01.850Z,4.30
2023-09-18T07:46:32.453Z,4.95
2023-09-18T07:49:02.748Z,5.38
2023-09-18T07:51:33.021Z,5.15
2023-09-18T07:54:03.785Z,4.70
2023-09-18T07:56:36.823Z,5.80
2023-09-18T07:59:07.566Z,5.50
2023-09-18T08:01:37.969Z,7.10
2023-09-18T08:04:08.378Z,9.15
2023-09-18T08:06:40.043Z,11.60
2023-09-18T08:09:12.614Z,16.25
2023-09-18T08:11:47.594Z,16.88
2023-09-18T08:14:19.655Z,13.27
2023-09-18T08:16:49.910Z,11.13
2023-09-18T08:19:22.310Z,10.68
2023-09-18T08:21:54.265Z,8.65
2023-09-18T08:24:25.266Z,8.05
2023-09-18T08:26:56.620Z,8.27
2023-09-18T08:29:27.472Z,7.68
2023-09-18T08:31:59.277Z,8.38
2023-09-18T08:34:29.918Z,8.20
2023-09-18T08:37:00.315Z,8.60
2023-09-18T08:39:30.767Z,6.55
2023-09-18T08:42:06.228Z,7.22
2023-09-18T08:44:41.323Z,7.03
2023-09-18T08:47:14.469Z,6.00
2023-09-18T08:49:45.214Z,7.13
2023-09-18T08:52:17.184Z,6.38
2023-09-18T08:54:48.818Z,6.30
2023-09-18T08:57:19.196Z,6.53
2023-09-18T08:59:53.266Z,6.30
2023-09-18T09:02:23.482Z,5.80
2023-09-18T09:04:53.777Z,5.57
2023-09-18T09:07:24.048Z,5.10
2023-09-18T09:09:54.331Z,5.13
2023-09-18T09:12:59.518Z,5.95
2023-09-18T09:15:34.248Z,6.25
2023-09-18T09:18:11.393Z,5.57
2023-09-18T09:20:42.208Z,5.35
2023-09-18T09:23:13.386Z,6.57
2023-09-18T09:25:43.658Z,6.22
2023-09-18T09:28:14.473Z,6.22
2023-09-18T09:30:45.059Z,5.47
2023-09-18T09:33:15.587Z,4.50
2023-09-18T09:35:46.241Z,6.13
2023-09-18T09:38:18.308Z,5.70
2023-09-18T09:40:48.651Z,6.90
2023-09-18T09:43:20.453Z,6.10
2023-09-18T09:45:51.228Z,7.57
2023-09-18T09:48:23.152Z,6.35
2023-09-18T09:50:54.079Z,6.45
2023-09-18T09:53:50.954Z,5.88
2023-09-18T09:56:24.659Z,7.40
2023-09-18T09:59:06.561Z,6.35
2023-09-18T10:01:38.013Z,5.97
2023-09-18T10:04:14.015Z,5.53
2023-09-18T10:06:47.316Z,5.85
2023-09-18T10:09:20.146Z,5.15
2023-09-18T10:11:55.541Z,5.80
2023-09-18T10:14:55.580Z,5.93
2023-09-18T10:17:35.077Z,7.45
2023-09-18T10:20:13.036Z,6.18
2023-09-18T10:22:49.059Z,6.28
2023-09-18T10:25:30.971Z,6.82
2023-09-18T10:28:05.017Z,6.10
2023-09-18T10:30:38.162Z,5.13
2023-09-18T10:33:09.929Z,5.22
2023-09-18T10:35:41.259Z,6.30
2023-09-18T10:38:13.223Z,5.65
2023-09-18T10:40:44.011Z,5.43
2023-09-18T10:43:17.010Z,5.72
2023-09-18T10:45:48.155Z,5.22
2023-09-18T10:50:49.213Z,5.32
2023-09-18T10:53:22.772Z,4.55
2023-09-18T10:55:53.727Z,4.85
2023-09-18T10:58:28.271Z,5.18
2023-09-18T11:00:59.796Z,5.40
2023-09-18T11:03:30.219Z,4.57
2023-09-18T11:06:13.261Z,4.10
2023-09-18T11:08:46.559Z,4.55
2023-09-18T11:11:17.161Z,4.22
2023-09-18T11:13:52.221Z,5.13
2023-09-18T11:16:40.711Z,4.47
2023-09-18T11:19:16.313Z,4.72
2023-09-18T11:21:47.958Z,4.85
2023-09-18T11:24:24.937Z,3.88
2023-09-18T11:26:55.575Z,4.07
2023-09-18T11:29:29.163Z,4.10
2023-09-18T11:32:06.203Z,5.13
2023-09-18T11:37:28.016Z,3.90
2023-09-18T11:39:59.201Z,3.72
2023-09-18T11:45:01.627Z,3.60
2023-09-18T11:47:32.161Z,3.67
2023-09-18T11:50:05.213Z,4.28
2023-09-18T11:52:37.804Z,6.57
2023-09-18T11:55:10.403Z,7.88
2023-09-18T11:57:41.135Z,4.43
2023-09-18T12:00:24.977Z,5.22
2023-09-18T12:02:55.236Z,5.10
2023-09-18T12:05:28.974Z,4.93
2023-09-18T12:07:59.749Z,4.00
2023-09-18T12:10:30.569Z,4.43
2023-09-18T12:13:01.005Z,4.47
2023-09-18T12:15:32.175Z,4.85
2023-09-18T12:18:09.157Z,3.80
2023-09-18T12:20:41.816Z,4.00
2023-09-18T12:23:12.227Z,4.15
2023-09-18T12:25:43.110Z,4.05
2023-09-18T12:28:13.451Z,5.22
2023-09-18T12:30:44.247Z,4.75
2023-09-18T12:33:14.978Z,5.18
2023-09-18T12:35:45.415Z,4.35
2023-09-18T12:38:29.003Z,5.22
2023-09-18T12:41:08.070Z,3.20
2023-09-18T12:43:43.777Z,4.00
2023-09-18T12:46:14.857Z,2.97
2023-09-18T12:48:48.588Z,3.38
2023-09-18T12:51:24.814Z,3.38
2023-09-18T12:54:03.143Z,3.72
2023-09-18T12:56:33.344Z,3.63
2023-09-18T12:59:12.605Z,2.88
2023-09-18T13:01:48.666Z,2.70
2023-09-18T13:04:19.154Z,2.33
2023-09-18T13:06:49.592Z,2.90
2023-09-18T13:09:25.089Z,2.90
2023-09-18T13:11:59.439Z,3.00
2023-09-18T13:14:29.667Z,2.42
2023-09-18T13:17:08.729Z,3.42
2023-09-18T13:19:39.270Z,2.65
2023-09-18T13:22:09.472Z,2.75
2023-09-18T13:24:40.087Z,2.70
2023-09-18T13:27:10.308Z,3.75
2023-09-18T13:29:40.328Z,2.40
2023-09-18T13:32:10.551Z,3.55
2023-09-18T13:34:41.570Z,2.65
2023-09-18T13:37:11.888Z,3.08
2023-09-18T13:39:42.070Z,3.58
2023-09-18T13:42:12.237Z,3.15
2023-09-18T13:44:42.411Z,2.47
2023-09-18T13:47:12.600Z,3.33
2023-09-18T13:49:42.719Z,3.03
2023-09-18T13:52:12.667Z,3.33
2023-09-18T13:54:49.989Z,3.40
2023-09-18T13:57:21.207Z,4.28
2023-09-18T13:59:52.451Z,2.83
2023-09-18T14:02:23.303Z,3.13
2023-09-18T14:04:53.502Z,2.55
2023-09-18T14:07:24.668Z,4.15
2023-09-18T14:12:24.446Z,2.88
2023-09-18T14:14:54.590Z,3.47
2023-09-18T14:17:24.856Z,2.88
2023-09-18T14:19:55.921Z,3.42
2023-09-18T14:24:56.570Z,2.55
2023-09-18T14:27:26.742Z,2.92
2023-09-18T14:29:56.744Z,3.15
2023-09-18T14:32:27.347Z,3.00
2023-09-18T14:34:57.625Z,2.75
2023-09-18T14:37:27.789Z,2.70
2023-09-18T14:39:57.759Z,2.97
2023-09-18T14:42:27.699Z,3.45
2023-09-18T14:44:58.003Z,3.17
2023-09-18T14:47:28.438Z,3.42
2023-09-18T14:50:00.665Z,2.83
2023-09-18T14:52:31.181Z,2.58
2023-09-18T14:55:05.779Z,2.55
2023-09-18T14:57:35.990Z,2.63
2023-09-18T15:00:08.420Z,2.80
2023-09-18T15:02:39.032Z,3.05
2023-09-18T15:05:12.620Z,2.80
2023-09-18T15:07:42.800Z,2.42
2023-09-18T15:10:13.041Z,2.50
2023-09-18T15:12:44.477Z,2.83
2023-09-18T15:15:14.610Z,2.83
2023-09-18T15:17:44.538Z,2.58
2023-09-18T15:20:15.212Z,2.63
2023-09-18T15:22:45.469Z,2.60
2023-09-18T15:25:15.444Z,2.90
2023-09-18T15:27:46.337Z,3.70
2023-09-18T15:30:17.278Z,2.58
2023-09-18T15:35:27.106Z,2.58
2023-09-18T15:37:57.381Z,2.75
2023-09-18T15:40:27.508Z,3.30
2023-09-18T15:42:57.704Z,2.20
2023-09-18T15:45:27.947Z,1.70
2023-09-18T15:47:58.383Z,2.13
2023-09-18T15:50:28.696Z,1.88
2023-09-18T15:52:58.985Z,2.35
2023-09-18T15:55:29.029Z,2.60
2023-09-18T15:57:58.928Z,2.38
2023-09-18T16:00:29.186Z,2.47
2023-09-18T16:02:59.707Z,2.75
2023-09-18T16:05:29.870Z,3.45
2023-09-18T16:08:06.043Z,2.83
2023-09-18T16:10:36.795Z,2.72
2023-09-18T16:13:06.777Z,3.05
2023-09-18T16:15:36.673Z,2.33
2023-09-18T16:18:07.474Z,2.05
2023-09-18T16:20:37.729Z,1.73
2023-09-18T16:23:07.613Z,1.90
2023-09-18T16:25:37.426Z,2.05
2023-09-18T16:28:08.586Z,2.08
2023-09-18T16:30:38.677Z,2.72
2023-09-18T16:33:08.590Z,2.83
2023-09-18T16:35:39.214Z,4.20
2023-09-18T16:38:10.154Z,2.60
2023-09-18T16:40:40.232Z,2.50
2023-09-18T16:43:11.149Z,2.20
2023-09-18T16:45:44.601Z,2.97
2023-09-18T16:48:14.894Z,2.40
2023-09-18T16:50:46.110Z,2.85
2023-09-18T16:53:17.732Z,3.10
2023-09-18T16:55:47.892Z,2.88
2023-09-18T16:58:18.045Z,2.55
2023-09-18T17:00:48.173Z,3.67
2023-09-18T17:03:18.960Z,3.95
2023-09-18T17:05:49.242Z,3.15
2023-09-18T17:08:19.434Z,3.08
2023-09-18T17:10:50.696Z,3.15
2023-09-18T17:13:20.998Z,3.28
2023-09-18T17:15:52.117Z,2.58
2023-09-18T17:18:22.852Z,3.20
2023-09-18T17:20:53.617Z,3.75
2023-09-18T17:23:24.699Z,3.65
2023-09-18T17:25:54.883Z,3.30
2023-09-18T17:28:25.063Z,3.00
2023-09-18T17:30:55.216Z,3.78
2023-09-18T17:33:25.771Z,4.15
2023-09-18T17:35:55.910Z,3.10
2023-09-18T17:38:27.115Z,3.15
2023-09-18T17:43:26.538Z,3.33
2023-09-18T17:45:56.803Z,3.50
2023-09-18T17:48:27.080Z,3.78
2023-09-18T17:50:57.407Z,4.07
2023-09-18T17:53:27.933Z,3.13
2023-09-18T17:55:59.572Z,3.53
2023-09-18T17:58:29.778Z,2.17
2023-09-18T18:00:59.983Z,3.88
2023-09-18T18:03:30.810Z,2.97
2023-09-18T18:06:01.524Z,3.13
2023-09-18T18:11:05.795Z,3.17
2023-09-18T18:16:07.153Z,3.35
2023-09-18T18:18:39.879Z,3.75
2023-09-18T18:21:10.105Z,3.25
2023-09-18T18:23:40.536Z,2.67
2023-09-18T18:26:12.640Z,2.83
2023-09-18T18:28:42.784Z,3.22
2023-09-18T18:31:14.549Z,3.47
2023-09-18T18:33:45.028Z,4.13
2023-09-18T18:36:15.478Z,3.63
2023-09-18T18:38:45.745Z,4.65
2023-09-18T18:41:15.891Z,4.10
2023-09-18T18:46:18.450Z,3.92
2023-09-18T18:48:48.806Z,5.15
2023-09-18T18:51:20.384Z,4.28
2023-09-18T18:53:51.141Z,4.30
2023-09-18T18:56:21.578Z,4.60
2023-09-18T18:58:51.966Z,3.00
2023-09-18T19:01:26.560Z,8.25
2023-09-18T19:03:58.065Z,4.20
2023-09-18T19:06:28.609Z,3.20
2023-09-18T19:09:01.128Z,4.50
2023-09-18T19:11:31.957Z,4.65
2023-09-18T19:14:02.664Z,4.40
2023-09-18T19:16:33.305Z,4.47
2023-09-18T19:19:04.009Z,3.40
2023-09-18T19:21:36.175Z,3.22
2023-09-18T19:24:06.932Z,4.38
2023-09-18T19:26:37.240Z,4.78
2023-09-18T19:29:07.487Z,3.55
2023-09-18T19:31:37.664Z,5.43
2023-09-18T19:34:10.331Z,3.50
2023-09-18T19:36:40.477Z,4.00
2023-09-18T19:39:11.021Z,3.17
2023-09-18T19:41:41.659Z,3.10
2023-09-18T19:44:11.966Z,3.90
2023-09-18T19:46:42.158Z,7.30
2023-09-18T19:49:12.398Z,3.53
2023-09-18T19:51:42.669Z,3.42
2023-09-18T19:54:16.991Z,3.13
2023-09-18T19:56:47.263Z,3.03
2023-09-18T19:59:17.407Z,2.78
2023-09-18T20:01:50.907Z,3.08
2023-09-18T20:04:21.608Z,2.78
2023-09-18T20:06:55.028Z,2.85
2023-09-18T20:09:25.490Z,2.80
2023-09-18T20:11:55.941Z,3.50
2023-09-18T20:14:32.169Z,2.55
2023-09-18T20:17:02.772Z,1.83
2023-09-18T20:19:32.946Z,2.63
2023-09-18T20:22:05.029Z,1.77
2023-09-18T20:24:35.259Z,2.22
2023-09-18T20:27:05.622Z,1.95
2023-09-18T20:29:36.166Z,2.60
2023-09-18T20:32:06.754Z,3.33
2023-09-18T20:34:37.271Z,2.35
2023-09-18T20:37:09.052Z,2.63
2023-09-18T20:39:39.408Z,2.63
2023-09-18T20:42:09.719Z,2.75
2023-09-18T20:44:39.918Z,2.80
2023-09-18T20:47:10.223Z,2.50
2023-09-18T20:49:45.038Z,2.22
2023-09-18T20:52:15.163Z,3.28
2023-09-18T20:54:46.384Z,3.70
2023-09-18T20:59:46.618Z,3.95
2023-09-18T21:02:16.914Z,4.15
2023-09-18T21:04:47.614Z,3.50
2023-09-18T21:07:17.625Z,4.07
2023-09-18T21:09:48.771Z,3.78
2023-09-18T21:14:52.647Z,2.33
2023-09-18T21:17:22.902Z,2.50
2023-09-18T21:19:53.217Z,2.80
2023-09-18T21:22:23.352Z,2.55
2023-09-18T21:24:53.666Z,2.83
2023-09-18T21:27:24.554Z,2.75
2023-09-18T21:29:54.861Z,2.83
2023-09-18T21:32:25.677Z,3.38
2023-09-18T21:34:56.209Z,2.42
2023-09-18T21:37:26.458Z,2.55
2023-09-18T21:39:56.851Z,2.70
2023-09-18T21:42:26.977Z,3.08
2023-09-18T21:44:57.001Z,3.35
2023-09-18T21:47:27.252Z,3.08
2023-09-18T21:49:57.820Z,4.38
2023-09-18T21:52:28.068Z,3.10
2023-09-18T21:54:59.023Z,2.75
2023-09-18T21:57:29.177Z,2.55
2023-09-18T22:00:00.399Z,3.05
2023-09-18T22:02:31.349Z,2.33
2023-09-18T22:05:01.842Z,3.20
2023-09-18T22:07:32.893Z,3.03
2023-09-18T22:10:03.370Z,2.58
2023-09-18T22:12:33.791Z,3.58
2023-09-18T22:15:14.798Z,2.50
2023-09-18T22:17:45.614Z,3.30
2023-09-18T22:20:16.670Z,2.65
2023-09-18T22:22:49.888Z,2.88
2023-09-18T22:25:20.684Z,2.22
2023-09-18T22:27:51.795Z,2.40
2023-09-18T22:30:23.601Z,2.67
2023-09-18T22:32:53.851Z,2.17
2023-09-18T22:35:25.232Z,1.88
2023-09-18T22:38:04.441Z,2.17
2023-09-18T22:40:35.553Z,2.15
2023-09-18T22:43:43.104Z,1.83
2023-09-18T22:46:51.598Z,2.15
2023-09-18T22:49:59.852Z,1.83
2023-09-18T22:52:49.590Z,2.15
2023-09-18T22:55:22.571Z,2.50
2023-09-18T22:57:57.252Z,1.73
2023-09-18T23:00:32.143Z,2.17
2023-09-18T23:03:12.216Z,2.17
2023-09-18T23:05:43.768Z,2.28
2023-09-18T23:08:18.599Z,2.15
2023-09-18T23:10:50.769Z,2.10
2023-09-18T23:13:22.533Z,2.05
2023-09-18T23:15:54.186Z,2.83
2023-09-18T23:18:25.916Z,2.53
2023-09-18T23:20:58.630Z,2.33
2023-09-18T23:23:33.229Z,1.67
2023-09-18T23:26:05.011Z,1.75
2023-09-18T23:28:40.011Z,1.80
2023-09-18T23:31:13.173Z,2.10
2023-09-18T23:33:48.660Z,2.25
2023-09-18T23:36:20.492Z,2.13
2023-09-18T23:38:52.164Z,2.05
2023-09-18T23:41:31.884Z,1.90
2023-09-18T23:44:19.299Z,1.98
2023-09-18T23:46:54.044Z,1.63
2023-09-18T23:49:25.736Z,1.77
2023-09-18T23:52:05.121Z,2.50
2023-09-18T23:54:36.689Z,2.33
2023-09-18T23:57:10.820Z,1.77
2023-09-18T23:59:42.545Z,1.70
